createdAt,value
2022-09-16T00:00:48.406Z,99.90
2022-09-16T00:03:37.757Z,99.90
2022-09-16T00:06:30.671Z,99.90
2022-09-16T00:09:20.023Z,99.90
2022-09-16T00:12:09.857Z,99.90
2022-09-16T00:14:59.193Z,99.90
2022-09-16T00:17:49.145Z,99.90
2022-09-16T00:20:38.449Z,99.90
2022-09-16T00:23:29.181Z,99.90
2022-09-16T00:26:19.094Z,99.90
2022-09-16T00:29:08.616Z,99.90
2022-09-16T00:31:58.009Z,99.90
2022-09-16T00:34:47.419Z,99.90
2022-09-16T00:37:36.826Z,99.90
2022-09-16T00:40:27.633Z,99.90
2022-09-16T00:43:19.399Z,99.90
2022-09-16T00:46:08.747Z,99.90
2022-09-16T00:49:00.016Z,99.90
2022-09-16T00:51:53.366Z,99.90
2022-09-16T00:54:43.899Z,99.90
2022-09-16T00:57:35.732Z,99.90
2022-09-16T01:00:25.123Z,99.90
2022-09-16T01:03:14.460Z,99.90
2022-09-16T01:06:05.025Z,99.90
2022-09-16T01:08:57.215Z,99.90
2022-09-16T01:11:46.738Z,99.90
2022-09-16T01:14:55.428Z,99.90
2022-09-16T01:17:59.788Z,99.90
2022-09-16T01:21:24.922Z,99.90
2022-09-16T01:24:46.126Z,99.90
2022-09-16T01:28:14.620Z,99.90
2022-09-16T01:31:16.876Z,99.90
2022-09-16T01:34:19.859Z,99.90
2022-09-16T01:37:20.997Z,99.90
2022-09-16T01:40:16.767Z,99.90
2022-09-16T01:43:15.802Z,99.90
2022-09-16T01:46:16.478Z,99.90
2022-09-16T01:49:17.708Z,99.90
2022-09-16T01:52:20.560Z,99.90
2022-09-16T01:55:13.262Z,99.90
2022-09-16T01:58:10.727Z,99.90
2022-09-16T02:01:06.940Z,99.90
2022-09-16T02:04:03.488Z,99.90
2022-09-16T02:06:54.677Z,99.90
2022-09-16T02:09:51.837Z,99.90
2022-09-16T02:12:44.465Z,99.90
2022-09-16T02:15:35.457Z,99.90
2022-09-16T02:18:30.863Z,99.90
2022-09-16T02:21:23.553Z,99.90
2022-09-16T02:24:19.524Z,99.90
2022-09-16T02:27:16.813Z,99.90
2022-09-16T02:30:11.262Z,99.90
2022-09-16T02:33:07.873Z,99.90
2022-09-16T02:36:00.529Z,99.90
2022-09-16T02:38:55.085Z,99.90
2022-09-16T02:41:44.639Z,99.90
2022-09-16T02:44:35.278Z,99.90
2022-09-16T02:47:32.709Z,99.90
2022-09-16T02:50:31.173Z,99.90
2022-09-16T02:53:35.399Z,99.90
2022-09-16T02:56:28.761Z,99.90
2022-09-16T02:59:19.234Z,99.90
2022-09-16T03:02:08.912Z,99.90
2022-09-16T03:04:58.313Z,99.90
2022-09-16T03:07:47.935Z,99.90
2022-09-16T03:10:45.608Z,99.90
2022-09-16T03:13:45.379Z,99.90
2022-09-16T03:16:46.150Z,99.90
2022-09-16T03:19:50.921Z,99.90
2022-09-16T03:22:50.294Z,99.90
2022-09-16T03:25:50.860Z,99.90
2022-09-16T03:28:50.075Z,99.90
2022-09-16T03:31:48.174Z,99.90
2022-09-16T03:34:43.126Z,99.90
2022-09-16T03:37:36.183Z,99.90
2022-09-16T03:40:26.625Z,99.90
2022-09-16T03:43:18.504Z,99.90
2022-09-16T03:46:12.366Z,99.90
2022-09-16T03:49:01.989Z,99.90
2022-09-16T03:51:51.307Z,99.90
2022-09-16T03:54:40.878Z,99.90
2022-09-16T03:57:30.703Z,99.90
2022-09-16T04:00:21.978Z,99.90
2022-09-16T04:03:11.246Z,99.90
2022-09-16T04:06:00.599Z,99.90
2022-09-16T04:08:50.635Z,99.90
2022-09-16T04:11:40.376Z,99.90
2022-09-16T04:14:29.669Z,99.90
2022-09-16T04:17:20.353Z,99.90
2022-09-16T04:20:11.331Z,99.90
2022-09-16T04:23:00.632Z,99.90
2022-09-16T04:25:56.344Z,99.90
2022-09-16T04:28:46.921Z,99.90
2022-09-16T04:31:36.452Z,99.90
2022-09-16T04:34:27.273Z,99.90
2022-09-16T04:37:16.640Z,99.90
2022-09-16T04:40:07.524Z,99.90
2022-09-16T04:42:56.876Z,99.90
2022-09-16T04:45:46.349Z,99.90
2022-09-16T04:48:36.219Z,99.90
2022-09-16T04:51:28.401Z,99.90
2022-09-16T04:54:17.917Z,99.90
2022-09-16T04:57:07.400Z,99.90
2022-09-16T04:59:56.676Z,99.90
2022-09-16T05:02:46.846Z,99.90
2022-09-16T05:05:36.214Z,99.90
2022-09-16T05:08:26.930Z,99.90
2022-09-16T05:11:21.017Z,99.90
2022-09-16T05:14:14.588Z,99.90
2022-09-16T05:17:03.921Z,99.90
2022-09-16T05:19:53.219Z,99.90
2022-09-16T05:22:42.537Z,99.90
2022-09-16T05:25:35.021Z,99.90
2022-09-16T05:28:24.458Z,99.90
2022-09-16T05:31:16.683Z,99.90
2022-09-16T05:34:09.190Z,99.90
2022-09-16T05:37:00.310Z,99.90
2022-09-16T05:39:49.719Z,99.90
2022-09-16T05:42:40.443Z,99.90
2022-09-16T05:45:32.343Z,99.90
2022-09-16T05:48:22.562Z,99.90
2022-09-16T05:51:18.756Z,99.90
2022-09-16T05:54:09.918Z,99.90
2022-09-16T05:57:01.252Z,99.90
2022-09-16T05:59:55.320Z,99.90
2022-09-16T06:02:44.776Z,99.90
2022-09-16T06:05:34.476Z,99.90
2022-09-16T06:08:23.762Z,99.90
2022-09-16T06:11:14.083Z,99.90
2022-09-16T06:14:03.456Z,99.90
2022-09-16T06:16:54.159Z,99.90
2022-09-16T06:19:43.524Z,99.90
2022-09-16T06:22:32.881Z,99.90
2022-09-16T06:25:22.180Z,99.90
2022-09-16T06:28:12.009Z,99.90
2022-09-16T06:31:07.709Z,99.90
2022-09-16T06:33:59.954Z,99.90
2022-09-16T06:36:49.418Z,99.90
2022-09-16T06:39:38.726Z,99.90
2022-09-16T06:42:28.564Z,99.90
2022-09-16T06:45:24.952Z,99.90
2022-09-16T06:48:14.299Z,99.90
2022-09-16T06:51:08.345Z,99.90
2022-09-16T06:54:03.099Z,99.90
2022-09-16T06:56:52.434Z,99.90
2022-09-16T06:59:41.732Z,99.90
2022-09-16T07:02:31.940Z,99.90
2022-09-16T07:05:21.270Z,99.90
2022-09-16T07:08:11.942Z,99.90
2022-09-16T07:11:05.342Z,99.90
2022-09-16T07:13:55.165Z,99.90
2022-09-16T07:16:44.500Z,99.90
2022-09-16T07:19:33.909Z,99.90
2022-09-16T07:22:23.240Z,99.90
2022-09-16T07:25:14.000Z,99.90
2022-09-16T07:28:04.210Z,99.90
2022-09-16T07:30:53.536Z,99.90
2022-09-16T07:33:45.417Z,99.90
2022-09-16T07:36:37.506Z,99.90
2022-09-16T07:39:27.220Z,99.90
2022-09-16T07:42:17.972Z,99.90
2022-09-16T07:45:08.600Z,99.90
2022-09-16T07:47:57.939Z,99.90
2022-09-16T07:50:57.095Z,99.90
2022-09-16T07:53:47.627Z,99.90
2022-09-16T07:56:39.583Z,99.90
2022-09-16T07:59:30.542Z,99.90
2022-09-16T08:02:20.009Z,99.90
2022-09-16T08:05:10.364Z,99.90
2022-09-16T08:07:59.687Z,99.90
2022-09-16T08:10:55.893Z,99.90
2022-09-16T08:13:46.563Z,99.90
2022-09-16T08:16:37.369Z,99.90
2022-09-16T08:19:26.797Z,99.90
2022-09-16T08:22:16.179Z,99.20
2022-09-16T08:25:06.469Z,97.70
2022-09-16T08:27:56.472Z,96.40
2022-09-16T08:30:49.010Z,95.60
2022-09-16T08:33:43.153Z,94.90
2022-09-16T08:36:33.842Z,94.00
2022-09-16T08:39:23.236Z,94.30
2022-09-16T08:42:42.260Z,96.00
2022-09-16T08:45:39.223Z,95.90
2022-09-16T08:48:38.441Z,99.90
2022-09-16T08:51:29.625Z,99.90
2022-09-16T08:54:29.094Z,99.90
2022-09-16T08:57:23.249Z,99.30
2022-09-16T09:00:18.091Z,97.90
2022-09-16T09:03:17.370Z,97.20
2022-09-16T09:06:22.020Z,96.10
2022-09-16T09:09:30.491Z,93.80
2022-09-16T09:12:33.060Z,91.90
2022-09-16T09:15:36.365Z,90.90
2022-09-16T09:18:40.803Z,90.90
2022-09-16T09:21:44.298Z,90.70
2022-09-16T09:25:10.378Z,91.50
2022-09-16T09:28:18.538Z,92.40
2022-09-16T09:31:20.131Z,92.50
2022-09-16T09:34:27.209Z,91.90
2022-09-16T09:37:52.816Z,91.40
2022-09-16T09:40:51.078Z,93.20
2022-09-16T09:43:46.740Z,97.40
2022-09-16T09:46:41.167Z,98.50
2022-09-16T09:49:34.561Z,99.10
2022-09-16T09:52:32.381Z,99.80
2022-09-16T09:55:25.882Z,98.00
2022-09-16T09:58:28.324Z,98.90
2022-09-16T10:01:18.373Z,95.50
2022-09-16T10:04:15.891Z,95.80
2022-09-16T10:07:07.020Z,91.30
2022-09-16T10:10:02.319Z,92.90
2022-09-16T10:12:52.078Z,92.30
2022-09-16T10:15:42.935Z,91.10
2022-09-16T10:18:33.591Z,86.90
2022-09-16T10:21:23.041Z,84.70
2022-09-16T10:24:33.390Z,81.70
2022-09-16T10:27:27.022Z,75.80
2022-09-16T10:30:19.764Z,73.90
2022-09-16T10:33:17.796Z,72.90
2022-09-16T10:36:11.278Z,73.00
2022-09-16T10:39:04.742Z,75.60
2022-09-16T10:41:54.880Z,76.90
2022-09-16T10:44:46.216Z,77.10
2022-09-16T10:47:36.388Z,76.40
2022-09-16T10:50:27.741Z,75.00
2022-09-16T10:53:27.767Z,73.20
2022-09-16T10:56:21.031Z,70.60
2022-09-16T10:59:13.303Z,70.90
2022-09-16T11:05:24.063Z,67.70
2022-09-16T11:08:35.975Z,66.80
2022-09-16T11:11:47.554Z,63.30
2022-09-16T11:14:51.320Z,60.30
2022-09-16T11:17:56.846Z,58.50
2022-09-16T11:21:12.858Z,57.60
2022-09-16T11:24:28.257Z,57.90
2022-09-16T11:27:32.145Z,58.90
2022-09-16T11:30:23.140Z,58.90
2022-09-16T11:33:24.663Z,59.50
2022-09-16T11:36:37.642Z,59.40
2022-09-16T11:39:49.425Z,59.40
2022-09-16T11:42:44.277Z,59.30
2022-09-16T11:45:48.711Z,59.40
2022-09-16T11:48:50.302Z,59.30
2022-09-16T11:51:58.709Z,59.40
2022-09-16T11:55:19.816Z,59.50
2022-09-16T11:58:23.152Z,59.70
2022-09-16T12:01:25.422Z,59.90
2022-09-16T12:04:22.399Z,60.00
2022-09-16T12:07:17.784Z,60.60
2022-09-16T12:10:19.261Z,61.20
2022-09-16T12:13:15.563Z,61.10
2022-09-16T12:16:10.907Z,61.70
2022-09-16T12:19:09.372Z,61.60
2022-09-16T12:22:06.129Z,61.50
2022-09-16T12:25:05.328Z,61.40
2022-09-16T12:28:04.020Z,61.30
2022-09-16T12:31:04.387Z,61.00
2022-09-16T12:34:09.856Z,60.60
2022-09-16T12:37:06.665Z,61.00
2022-09-16T12:39:56.114Z,60.10
2022-09-16T12:43:32.503Z,59.90
2022-09-16T12:46:50.567Z,59.60
2022-09-16T12:50:14.184Z,59.50
2022-09-16T12:53:49.560Z,59.70
2022-09-16T12:56:56.165Z,59.60
2022-09-16T13:00:16.422Z,59.80
2022-09-16T13:03:14.064Z,59.80
2022-09-16T13:06:23.569Z,60.00
2022-09-16T13:09:23.531Z,59.70
2022-09-16T13:12:39.220Z,59.70
2022-09-16T13:15:35.454Z,59.60
2022-09-16T13:18:28.033Z,59.90
2022-09-16T13:21:26.440Z,60.00
2022-09-16T13:24:25.425Z,59.90
2022-09-16T13:27:32.855Z,60.00
2022-09-16T13:30:34.713Z,59.90
2022-09-16T13:33:30.413Z,60.10
2022-09-16T13:36:34.622Z,60.30
2022-09-16T13:39:32.793Z,60.50
2022-09-16T13:42:24.823Z,60.90
2022-09-16T13:45:36.709Z,61.10
2022-09-16T13:48:28.148Z,60.60
2022-09-16T13:51:21.681Z,61.40
2022-09-16T13:54:26.401Z,61.70
2022-09-16T13:57:48.405Z,61.70
2022-09-16T14:00:48.825Z,62.30
2022-09-16T14:03:56.299Z,62.40
2022-09-16T14:07:00.452Z,61.80
2022-09-16T14:10:01.503Z,61.80
2022-09-16T14:13:03.088Z,61.40
2022-09-16T14:15:57.211Z,61.20
2022-09-16T14:18:55.544Z,61.00
2022-09-16T14:21:44.986Z,60.80
2022-09-16T14:24:39.589Z,60.80
2022-09-16T14:27:30.964Z,60.50
2022-09-16T14:30:21.487Z,60.70
2022-09-16T14:33:13.110Z,60.80
2022-09-16T14:36:10.626Z,60.80
2022-09-16T14:39:03.256Z,60.90
2022-09-16T14:41:54.675Z,61.30
2022-09-16T14:44:47.672Z,60.50
2022-09-16T14:47:51.135Z,60.60
2022-09-16T14:50:46.206Z,60.50
2022-09-16T14:53:38.423Z,60.20
2022-09-16T14:56:28.090Z,60.20
2022-09-16T14:59:17.894Z,60.20
2022-09-16T15:02:16.266Z,60.10
2022-09-16T15:05:22.990Z,59.90
2022-09-16T15:08:19.526Z,59.70
2022-09-16T15:11:30.051Z,59.70
2022-09-16T15:14:27.913Z,59.70
2022-09-16T15:17:21.939Z,60.10
2022-09-16T15:20:22.942Z,60.10
2022-09-16T15:23:26.070Z,60.20
2022-09-16T15:26:18.894Z,60.40
2022-09-16T15:29:26.105Z,60.40
2022-09-16T15:32:21.019Z,60.40
2022-09-16T15:35:22.532Z,60.30
2022-09-16T15:38:13.812Z,60.40
2022-09-16T15:41:07.333Z,60.20
2022-09-16T15:43:57.022Z,60.10
2022-09-16T15:46:47.517Z,60.20
2022-09-16T15:49:40.752Z,60.30
2022-09-16T15:52:32.830Z,60.30
2022-09-16T15:55:33.665Z,60.30
2022-09-16T15:58:39.628Z,60.30
2022-09-16T16:01:53.120Z,60.30
2022-09-16T16:04:43.003Z,60.30
2022-09-16T16:07:45.816Z,60.40
2022-09-16T16:10:36.387Z,60.70
2022-09-16T16:13:27.132Z,60.90
2022-09-16T16:16:18.535Z,61.10
2022-09-16T16:19:09.141Z,61.10
2022-09-16T16:21:59.281Z,61.10
2022-09-16T16:24:48.620Z,61.00
2022-09-16T16:27:38.168Z,61.00
2022-09-16T16:30:28.877Z,60.90
2022-09-16T16:33:18.339Z,61.00
2022-09-16T16:36:08.651Z,60.90
2022-09-16T16:38:58.128Z,60.90
2022-09-16T16:41:47.415Z,60.80
2022-09-16T16:44:36.811Z,60.70
2022-09-16T16:47:27.619Z,60.70
2022-09-16T16:50:18.102Z,60.70
2022-09-16T16:53:07.426Z,60.70
2022-09-16T16:56:04.238Z,60.70
2022-09-16T16:58:55.334Z,60.70
2022-09-16T17:01:48.729Z,60.80
2022-09-16T17:04:40.023Z,60.80
2022-09-16T17:07:29.840Z,60.80
2022-09-16T17:10:19.202Z,60.80
2022-09-16T17:13:08.794Z,60.90
2022-09-16T17:15:58.680Z,61.00
2022-09-16T17:18:48.845Z,61.00
2022-09-16T17:21:39.763Z,61.00
2022-09-16T17:24:29.110Z,61.00
2022-09-16T17:27:20.723Z,60.90
2022-09-16T17:30:10.996Z,60.90
2022-09-16T17:33:00.594Z,60.90
2022-09-16T17:35:59.376Z,60.90
2022-09-16T17:38:50.437Z,60.90
2022-09-16T17:41:39.814Z,60.90
2022-09-16T17:44:29.289Z,60.90
2022-09-16T17:47:18.596Z,60.90
2022-09-16T17:50:09.297Z,60.90
2022-09-16T17:52:58.622Z,61.00
2022-09-16T17:55:50.163Z,60.90
2022-09-16T17:58:41.992Z,61.10
2022-09-16T18:01:32.037Z,61.00
2022-09-16T18:04:21.487Z,61.00
2022-09-16T18:07:11.595Z,61.00
2022-09-16T18:10:00.945Z,61.00
2022-09-16T18:12:51.736Z,60.90
2022-09-16T18:15:41.094Z,61.10
2022-09-16T18:18:31.796Z,61.00
2022-09-16T18:21:23.922Z,61.20
2022-09-16T18:24:13.957Z,61.20
2022-09-16T18:27:03.412Z,61.30
2022-09-16T18:29:54.456Z,61.30
2022-09-16T18:32:43.832Z,61.40
2022-09-16T18:35:37.061Z,61.40
2022-09-16T18:38:26.572Z,61.40
2022-09-16T18:41:19.091Z,61.60
2022-09-16T18:44:14.026Z,61.70
2022-09-16T18:47:06.409Z,61.70
2022-09-16T18:49:55.798Z,61.80
2022-09-16T18:52:45.191Z,61.80
2022-09-16T18:55:34.520Z,61.90
2022-09-16T18:58:24.001Z,62.00
2022-09-16T19:01:27.277Z,62.00
2022-09-16T19:04:22.033Z,62.40
2022-09-16T19:07:15.026Z,62.40
2022-09-16T19:10:04.818Z,62.40
2022-09-16T19:12:54.389Z,62.30
2022-09-16T19:15:43.798Z,62.30
2022-09-16T19:18:33.233Z,62.40
2022-09-16T19:21:25.740Z,62.40
2022-09-16T19:24:18.400Z,62.50
2022-09-16T19:27:07.828Z,62.60
2022-09-16T19:29:57.199Z,62.60
2022-09-16T19:32:46.674Z,62.70
2022-09-16T19:35:36.288Z,62.70
2022-09-16T19:38:28.512Z,62.80
2022-09-16T19:41:21.032Z,63.00
2022-09-16T19:44:15.335Z,63.00
2022-09-16T19:47:04.750Z,63.00
2022-09-16T19:49:54.201Z,63.10
2022-09-16T19:52:43.569Z,63.20
2022-09-16T19:55:34.408Z,63.40
2022-09-16T19:58:23.848Z,63.70
2022-09-16T20:01:15.880Z,63.80
2022-09-16T20:04:07.786Z,64.00
2022-09-16T20:06:57.123Z,64.30
2022-09-16T20:09:48.312Z,64.40
2022-09-16T20:12:39.119Z,64.50
2022-09-16T20:15:28.463Z,64.50
2022-09-16T20:18:17.811Z,64.50
2022-09-16T20:21:10.649Z,64.50
2022-09-16T20:24:00.052Z,64.50
2022-09-16T20:26:53.071Z,64.40
2022-09-16T20:29:43.816Z,64.40
2022-09-16T20:32:33.105Z,64.30
2022-09-16T20:35:22.548Z,64.10
2022-09-16T20:38:11.876Z,64.10
2022-09-16T20:41:06.181Z,64.20
2022-09-16T20:43:55.670Z,64.40
2022-09-16T20:46:48.156Z,64.10
2022-09-16T20:49:37.534Z,64.20
2022-09-16T20:52:26.803Z,64.10
2022-09-16T20:55:16.305Z,64.00
2022-09-16T20:58:05.640Z,64.00
2022-09-16T21:00:54.995Z,63.80
2022-09-16T21:03:46.562Z,63.80
2022-09-16T21:06:37.349Z,63.80
2022-09-16T21:09:26.681Z,63.80
2022-09-16T21:12:17.047Z,63.70
2022-09-16T21:15:07.693Z,63.80
2022-09-16T21:17:57.036Z,63.80
2022-09-16T21:20:48.395Z,63.90
2022-09-16T21:23:38.267Z,64.10
2022-09-16T21:26:29.639Z,64.10
2022-09-16T21:29:20.888Z,64.10
2022-09-16T21:32:10.975Z,64.10
2022-09-16T21:35:00.427Z,64.30
2022-09-16T21:37:51.137Z,64.20
2022-09-16T21:40:40.504Z,64.40
2022-09-16T21:43:33.457Z,64.30
2022-09-16T21:46:26.988Z,64.50
2022-09-16T21:49:22.551Z,64.60
2022-09-16T21:52:12.029Z,64.50
2022-09-16T21:55:03.128Z,64.60
2022-09-16T21:57:52.415Z,64.70
2022-09-16T22:00:41.828Z,64.60
2022-09-16T22:03:31.188Z,64.70
2022-09-16T22:06:22.568Z,64.70
2022-09-16T22:09:12.531Z,64.70
2022-09-16T22:12:03.566Z,64.80
2022-09-16T22:14:52.897Z,64.90
2022-09-16T22:17:43.885Z,64.90
2022-09-16T22:20:34.316Z,65.10
2022-09-16T22:23:23.643Z,65.10
2022-09-16T22:26:15.738Z,65.00
2022-09-16T22:29:09.044Z,65.20
2022-09-16T22:31:58.361Z,65.30
2022-09-16T22:34:48.027Z,65.40
2022-09-16T22:37:37.331Z,65.30
2022-09-16T22:40:26.865Z,65.40
2022-09-16T22:43:16.185Z,65.40
2022-09-16T22:46:08.961Z,65.40
2022-09-16T22:49:00.148Z,65.50
2022-09-16T22:51:49.826Z,65.60
2022-09-16T22:54:39.106Z,65.60
2022-09-16T22:57:30.189Z,65.50
2022-09-16T23:00:19.622Z,65.70
2022-09-16T23:03:10.257Z,65.80
2022-09-16T23:06:02.396Z,65.80
2022-09-16T23:08:52.397Z,65.90
2022-09-16T23:11:41.834Z,65.80
2022-09-16T23:14:31.147Z,65.90
2022-09-16T23:17:20.475Z,65.90
2022-09-16T23:20:11.510Z,66.10
2022-09-16T23:23:00.852Z,66.40
2022-09-16T23:25:50.144Z,66.70
2022-09-16T23:28:39.609Z,67.00
2022-09-16T23:31:30.828Z,67.40
2022-09-16T23:34:22.860Z,67.70
2022-09-16T23:37:13.514Z,67.90
2022-09-16T23:40:03.600Z,68.10
2022-09-16T23:42:52.928Z,68.00
2022-09-16T23:45:43.022Z,68.00
2022-09-16T23:48:33.092Z,67.90
2022-09-16T23:51:28.283Z,67.90
2022-09-16T23:54:19.356Z,67.90
2022-09-16T23:57:08.841Z,68.00
2022-09-16T23:59:58.158Z,68.10
